sensor_id;sensor_type;location;lat;lon;timestamp;noise_LAeq;noise_LA_min;noise_LA_max;noise_LA01;noise_LA95
67294;Laerm;58160;51.434;5.978;2023-03-29T00:00:00;30.89;29.92;31.95;;
67294;Laerm;58160;51.434;5.978;2023-03-29T00:00:10;30.82;29.75;31.68;;
67294;Laerm;58160;51.434;5.978;2023-03-29T00:00:23;30.89;29.78;31.98;;
67294;Laerm;58160;51.434;5.978;2023-03-29T00:00:34;30.92;29.77;33.11;;
67294;Laerm;58160;51.434;5.978;2023-03-29T00:00:44;30.77;29.86;31.76;;
67294;Laerm;58160;51.434;5.978;2023-03-29T00:00:55;30.76;29.42;31.65;;
67294;Laerm;58160;51.434;5.978;2023-03-29T00:01:08;30.80;29.71;31.96;;
67294;Laerm;58160;51.434;5.978;2023-03-29T00:01:19;30.91;29.89;31.85;;
67294;Laerm;58160;51.434;5.978;2023-03-29T00:01:30;30.98;30.04;31.79;;
67294;Laerm;58160;51.434;5.978;2023-03-29T00:01:40;31.01;30.07;32.14;;
67294;Laerm;58160;51.434;5.978;2023-03-29T00:01:51;33.09;30.26;35.82;;
67294;Laerm;58160;51.434;5.978;2023-03-29T00:02:01;34.30;31.63;36.23;;
67294;Laerm;58160;51.434;5.978;2023-03-29T00:02:12;33.60;32.12;35.69;;
67294;Laerm;58160;51.434;5.978;2023-03-29T00:02:23;34.91;32.90;36.91;;
67294;Laerm;58160;51.434;5.978;2023-03-29T00:02:42;42.14;35.05;51.16;;
67294;Laerm;58160;51.434;5.978;2023-03-29T00:02:57;48.21;45.48;52.81;;
67294;Laerm;58160;51.434;5.978;2023-03-29T00:03:08;47.18;43.35;49.61;;
67294;Laerm;58160;51.434;5.978;2023-03-29T00:03:18;39.77;32.15;46.81;;
67294;Laerm;58160;51.434;5.978;2023-03-29T00:03:29;32.18;30.52;34.22;;
67294;Laerm;58160;51.434;5.978;2023-03-29T00:03:39;31.01;29.88;32.08;;
67294;Laerm;58160;51.434;5.978;2023-03-29T00:03:53;30.83;29.84;31.92;;
67294;Laerm;58160;51.434;5.978;2023-03-29T00:04:03;30.83;29.57;31.97;;
67294;Laerm;58160;51.434;5.978;2023-03-29T00:04:14;30.90;29.86;32.11;;
67294;Laerm;58160;51.434;5.978;2023-03-29T00:04:24;30.91;29.76;32.12;;
67294;Laerm;58160;51.434;5.978;2023-03-29T00:04:36;30.85;29.78;32.07;;
67294;Laerm;58160;51.434;5.978;2023-03-29T00:04:47;30.83;29.94;32.00;;
67294;Laerm;58160;51.434;5.978;2023-03-29T00:04:58;30.81;29.92;31.76;;
67294;Laerm;58160;51.434;5.978;2023-03-29T00:05:17;30.84;29.47;32.96;;
67294;Laerm;58160;51.434;5.978;2023-03-29T00:05:27;30.91;29.72;32.24;;
67294;Laerm;58160;51.434;5.978;2023-03-29T00:05:42;30.91;29.74;32.21;;
67294;Laerm;58160;51.434;5.978;2023-03-29T00:05:57;30.91;29.57;31.88;;
67294;Laerm;58160;51.434;5.978;2023-03-29T00:06:11;31.49;30.16;32.90;;
67294;Laerm;58160;51.434;5.978;2023-03-29T00:06:31;31.92;30.70;33.63;;
67294;Laerm;58160;51.434;5.978;2023-03-29T00:06:41;31.72;30.39;33.18;;
67294;Laerm;58160;51.434;5.978;2023-03-29T00:06:52;32.04;30.73;34.35;;
67294;Laerm;58160;51.434;5.978;2023-03-29T00:07:03;31.75;30.24;33.46;;
67294;Laerm;58160;51.434;5.978;2023-03-29T00:07:13;31.59;30.31;33.41;;
67294;Laerm;58160;51.434;5.978;2023-03-29T00:07:23;31.37;30.29;32.72;;
67294;Laerm;58160;51.434;5.978;2023-03-29T00:07:35;31.00;30.05;31.88;;
67294;Laerm;58160;51.434;5.978;2023-03-29T00:07:45;30.83;29.77;31.55;;
67294;Laerm;58160;51.434;5.978;2023-03-29T00:07:55;30.74;29.76;31.70;;
67294;Laerm;58160;51.434;5.978;2023-03-29T00:08:10;30.83;29.67;32.05;;
67294;Laerm;58160;51.434;5.978;2023-03-29T00:08:23;30.81;29.77;31.90;;
67294;Laerm;58160;51.434;5.978;2023-03-29T00:08:33;30.74;29.55;31.83;;
67294;Laerm;58160;51.434;5.978;2023-03-29T00:08:44;30.81;29.36;31.77;;
67294;Laerm;58160;51.434;5.978;2023-03-29T00:08:55;30.98;29.81;31.88;;
67294;Laerm;58160;51.434;5.978;2023-03-29T00:09:05;30.87;29.83;31.84;;
67294;Laerm;58160;51.434;5.978;2023-03-29T00:09:16;30.95;29.53;32.22;;
67294;Laerm;58160;51.434;5.978;2023-03-29T00:09:27;31.10;29.89;32.11;;
67294;Laerm;58160;51.434;5.978;2023-03-29T00:09:37;30.93;29.75;32.05;;
67294;Laerm;58160;51.434;5.978;2023-03-29T00:09:48;30.97;29.93;32.32;;
67294;Laerm;58160;51.434;5.978;2023-03-29T00:09:58;31.03;29.79;32.08;;
67294;Laerm;58160;51.434;5.978;2023-03-29T00:10:09;30.98;30.08;32.10;;
67294;Laerm;58160;51.434;5.978;2023-03-29T00:10:21;31.13;30.09;32.07;;
67294;Laerm;58160;51.434;5.978;2023-03-29T00:10:33;31.56;30.07;33.15;;
67294;Laerm;58160;51.434;5.978;2023-03-29T00:10:47;33.50;30.31;36.57;;
67294;Laerm;58160;51.434;5.978;2023-03-29T00:10:57;34.26;32.17;37.01;;
67294;Laerm;58160;51.434;5.978;2023-03-29T00:11:08;34.03;32.58;35.46;;
67294;Laerm;58160;51.434;5.978;2023-03-29T00:11:19;36.42;33.77;39.67;;
67294;Laerm;58160;51.434;5.978;2023-03-29T00:11:29;39.54;37.34;41.97;;
67294;Laerm;58160;51.434;5.978;2023-03-29T00:11:40;46.08;39.48;51.41;;
67294;Laerm;58160;51.434;5.978;2023-03-29T00:11:50;50.11;46.19;55.41;;
67294;Laerm;58160;51.434;5.978;2023-03-29T00:12:01;47.91;43.31;51.08;;
67294;Laerm;58160;51.434;5.978;2023-03-29T00:12:11;41.82;34.17;48.08;;
67294;Laerm;58160;51.434;5.978;2023-03-29T00:12:22;32.93;30.83;35.88;;
67294;Laerm;58160;51.434;5.978;2023-03-29T00:12:32;31.10;30.12;32.26;;
67294;Laerm;58160;51.434;5.978;2023-03-29T00:12:42;30.80;29.68;32.17;;
67294;Laerm;58160;51.434;5.978;2023-03-29T00:12:53;30.90;29.39;31.88;;
67294;Laerm;58160;51.434;5.978;2023-03-29T00:13:03;30.84;29.72;31.75;;
67294;Laerm;58160;51.434;5.978;2023-03-29T00:13:13;30.95;30.04;32.35;;
67294;Laerm;58160;51.434;5.978;2023-03-29T00:13:24;30.89;29.93;32.35;;
67294;Laerm;58160;51.434;5.978;2023-03-29T00:13:35;31.14;30.10;33.00;;
67294;Laerm;58160;51.434;5.978;2023-03-29T00:13:45;31.25;29.88;32.83;;
67294;Laerm;58160;51.434;5.978;2023-03-29T00:13:56;31.05;29.93;33.06;;
67294;Laerm;58160;51.434;5.978;2023-03-29T00:14:06;31.25;30.19;32.66;;
67294;Laerm;58160;51.434;5.978;2023-03-29T00:14:17;31.04;29.89;32.53;;
67294;Laerm;58160;51.434;5.978;2023-03-29T00:14:27;31.00;30.09;32.13;;
67294;Laerm;58160;51.434;5.978;2023-03-29T00:14:39;30.97;29.88;32.09;;
67294;Laerm;58160;51.434;5.978;2023-03-29T00:14:50;30.97;29.98;32.39;;
67294;Laerm;58160;51.434;5.978;2023-03-29T00:15:00;31.68;30.01;33.93;;
67294;Laerm;58160;51.434;5.978;2023-03-29T00:15:11;32.06;30.42;34.56;;
67294;Laerm;58160;51.434;5.978;2023-03-29T00:15:21;33.60;31.74;36.40;;
67294;Laerm;58160;51.434;5.978;2023-03-29T00:15:32;33.03;31.33;35.82;;
67294;Laerm;58160;51.434;5.978;2023-03-29T00:15:42;33.12;31.28;34.98;;
67294;Laerm;58160;51.434;5.978;2023-03-29T00:15:53;32.25;30.67;33.90;;
67294;Laerm;58160;51.434;5.978;2023-03-29T00:16:03;32.72;31.02;35.77;;
67294;Laerm;58160;51.434;5.978;2023-03-29T00:16:14;33.49;31.38;37.07;;
67294;Laerm;58160;51.434;5.978;2023-03-29T00:16:24;33.98;31.69;37.98;;
67294;Laerm;58160;51.434;5.978;2023-03-29T00:16:35;34.59;31.71;39.23;;
67294;Laerm;58160;51.434;5.978;2023-03-29T00:16:45;33.12;31.15;36.07;;
67294;Laerm;58160;51.434;5.978;2023-03-29T00:16:56;32.81;30.76;36.20;;
67294;Laerm;58160;51.434;5.978;2023-03-29T00:17:06;32.06;30.43;35.38;;
67294;Laerm;58160;51.434;5.978;2023-03-29T00:17:17;31.29;30.21;32.47;;
67294;Laerm;58160;51.434;5.978;2023-03-29T00:17:27;31.20;29.86;32.67;;
67294;Laerm;58160;51.434;5.978;2023-03-29T00:17:37;31.08;30.09;31.99;;
67294;Laerm;58160;51.434;5.978;2023-03-29T00:17:48;31.11;29.97;34.25;;
67294;Laerm;58160;51.434;5.978;2023-03-29T00:17:58;31.12;30.02;32.23;;
67294;Laerm;58160;51.434;5.978;2023-03-29T00:18:09;31.05;30.12;32.16;;
67294;Laerm;58160;51.434;5.978;2023-03-29T00:18:19;31.23;30.05;33.48;;
67294;Laerm;58160;51.434;5.978;2023-03-29T00:18:29;33.31;30.07;36.13;;
67294;Laerm;58160;51.434;5.978;2023-03-29T00:18:40;33.41;31.16;35.77;;
67294;Laerm;58160;51.434;5.978;2023-03-29T00:18:50;32.91;31.42;34.70;;
67294;Laerm;58160;51.434;5.978;2023-03-29T00:19:00;37.16;32.93;43.91;;
67294;Laerm;58160;51.434;5.978;2023-03-29T00:19:11;50.91;41.51;56.64;;
67294;Laerm;58160;51.434;5.978;2023-03-29T00:19:21;53.97;51.19;56.83;;
67294;Laerm;58160;51.434;5.978;2023-03-29T00:19:32;53.41;50.52;55.90;;
67294;Laerm;58160;51.434;5.978;2023-03-29T00:19:45;48.55;45.30;53.11;;
67294;Laerm;58160;51.434;5.978;2023-03-29T00:19:55;44.46;38.70;48.27;;
67294;Laerm;58160;51.434;5.978;2023-03-29T00:20:06;40.77;38.24;42.89;;
67294;Laerm;58160;51.434;5.978;2023-03-29T00:20:19;38.89;34.18;42.91;;
67294;Laerm;58160;51.434;5.978;2023-03-29T00:20:29;35.23;32.56;39.77;;
67294;Laerm;58160;51.434;5.978;2023-03-29T00:20:40;33.84;31.51;37.26;;
67294;Laerm;58160;51.434;5.978;2023-03-29T00:20:56;32.74;31.22;34.90;;
67294;Laerm;58160;51.434;5.978;2023-03-29T00:21:07;32.25;30.50;34.32;;
67294;Laerm;58160;51.434;5.978;2023-03-29T00:21:18;31.35;30.18;32.44;;
67294;Laerm;58160;51.434;5.978;2023-03-29T00:21:28;31.49;30.39;33.06;;
67294;Laerm;58160;51.434;5.978;2023-03-29T00:21:38;31.29;29.97;32.37;;
67294;Laerm;58160;51.434;5.978;2023-03-29T00:21:49;31.11;29.92;32.26;;
67294;Laerm;58160;51.434;5.978;2023-03-29T00:21:59;30.87;29.67;32.15;;
67294;Laerm;58160;51.434;5.978;2023-03-29T00:22:09;30.92;29.61;31.94;;
67294;Laerm;58160;51.434;5.978;2023-03-29T00:22:20;30.97;29.89;32.76;;
67294;Laerm;58160;51.434;5.978;2023-03-29T00:22:31;30.90;29.80;32.02;;
67294;Laerm;58160;51.434;5.978;2023-03-29T00:22:41;30.89;29.73;32.16;;
67294;Laerm;58160;51.434;5.978;2023-03-29T00:22:52;30.96;29.82;31.89;;
67294;Laerm;58160;51.434;5.978;2023-03-29T00:23:02;31.08;30.00;32.08;;
67294;Laerm;58160;51.434;5.978;2023-03-29T00:23:12;30.87;29.82;34.42;;
67294;Laerm;58160;51.434;5.978;2023-03-29T00:23:23;30.81;29.46;34.58;;
67294;Laerm;58160;51.434;5.978;2023-03-29T00:23:34;30.97;29.77;38.84;;
67294;Laerm;58160;51.434;5.978;2023-03-29T00:23:44;30.77;29.76;31.83;;
67294;Laerm;58160;51.434;5.978;2023-03-29T00:23:55;30.70;29.44;31.90;;
67294;Laerm;58160;51.434;5.978;2023-03-29T00:24:05;30.68;29.54;31.58;;
67294;Laerm;58160;51.434;5.978;2023-03-29T00:24:16;30.81;29.83;31.74;;
67294;Laerm;58160;51.434;5.978;2023-03-29T00:24:26;30.80;29.75;31.94;;
67294;Laerm;58160;51.434;5.978;2023-03-29T00:24:36;30.82;29.64;31.78;;
67294;Laerm;58160;51.434;5.978;2023-03-29T00:24:47;30.70;29.41;31.61;;
67294;Laerm;58160;51.434;5.978;2023-03-29T00:24:58;30.68;29.63;31.86;;
67294;Laerm;58160;51.434;5.978;2023-03-29T00:25:11;30.66;29.37;31.61;;
67294;Laerm;58160;51.434;5.978;2023-03-29T00:25:22;30.69;29.71;31.66;;
67294;Laerm;58160;51.434;5.978;2023-03-29T00:25:32;30.66;29.72;31.61;;
67294;Laerm;58160;51.434;5.978;2023-03-29T00:25:45;30.75;29.77;31.76;;
67294;Laerm;58160;51.434;5.978;2023-03-29T00:25:55;30.63;29.66;31.45;;
67294;Laerm;58160;51.434;5.978;2023-03-29T00:26:06;30.63;29.74;31.53;;
67294;Laerm;58160;51.434;5.978;2023-03-29T00:26:17;30.67;29.80;32.01;;
67294;Laerm;58160;51.434;5.978;2023-03-29T00:26:27;30.70;29.77;31.39;;
67294;Laerm;58160;51.434;5.978;2023-03-29T00:26:37;30.70;29.83;31.79;;
67294;Laerm;58160;51.434;5.978;2023-03-29T00:26:47;30.72;29.70;31.51;;
67294;Laerm;58160;51.434;5.978;2023-03-29T00:26:58;30.72;29.55;31.59;;
67294;Laerm;58160;51.434;5.978;2023-03-29T00:27:08;30.74;29.69;31.69;;
67294;Laerm;58160;51.434;5.978;2023-03-29T00:27:19;30.79;29.88;31.74;;
67294;Laerm;58160;51.434;5.978;2023-03-29T00:27:30;30.71;29.76;31.79;;
67294;Laerm;58160;51.434;5.978;2023-03-29T00:27:40;30.68;29.56;31.65;;
67294;Laerm;58160;51.434;5.978;2023-03-29T00:27:51;30.71;29.72;31.74;;
67294;Laerm;58160;51.434;5.978;2023-03-29T00:28:01;30.65;29.75;31.73;;
67294;Laerm;58160;51.434;5.978;2023-03-29T00:28:11;30.65;29.57;31.75;;
67294;Laerm;58160;51.434;5.978;2023-03-29T00:28:22;30.65;29.67;31.64;;
67294;Laerm;58160;51.434;5.978;2023-03-29T00:28:33;30.68;29.77;31.69;;
67294;Laerm;58160;51.434;5.978;2023-03-29T00:28:43;30.64;29.50;31.68;;
67294;Laerm;58160;51.434;5.978;2023-03-29T00:28:53;30.63;29.19;31.69;;
67294;Laerm;58160;51.434;5.978;2023-03-29T00:29:04;30.61;29.29;32.22;;
67294;Laerm;58160;51.434;5.978;2023-03-29T00:29:14;30.63;29.52;31.54;;
67294;Laerm;58160;51.434;5.978;2023-03-29T00:29:25;30.64;29.82;32.08;;
67294;Laerm;58160;51.434;5.978;2023-03-29T00:29:35;30.64;29.63;31.51;;
67294;Laerm;58160;51.434;5.978;2023-03-29T00:29:45;30.68;29.81;31.84;;
67294;Laerm;58160;51.434;5.978;2023-03-29T00:29:56;30.65;29.58;31.87;;
67294;Laerm;58160;51.434;5.978;2023-03-29T00:30:07;30.65;29.57;31.64;;
67294;Laerm;58160;51.434;5.978;2023-03-29T00:30:17;30.59;29.51;31.31;;
67294;Laerm;58160;51.434;5.978;2023-03-29T00:30:28;30.63;29.55;31.41;;
67294;Laerm;58160;51.434;5.978;2023-03-29T00:30:38;30.66;29.54;31.95;;
67294;Laerm;58160;51.434;5.978;2023-03-29T00:30:48;30.73;29.76;32.12;;
67294;Laerm;58160;51.434;5.978;2023-03-29T00:31:03;30.59;29.56;31.68;;
67294;Laerm;58160;51.434;5.978;2023-03-29T00:31:14;30.78;29.62;40.47;;
67294;Laerm;58160;51.434;5.978;2023-03-29T00:31:25;30.68;29.80;31.68;;
67294;Laerm;58160;51.434;5.978;2023-03-29T00:31:36;30.73;29.89;31.95;;
67294;Laerm;58160;51.434;5.978;2023-03-29T00:31:46;30.73;29.41;31.85;;
67294;Laerm;58160;51.434;5.978;2023-03-29T00:32:02;30.65;29.25;32.09;;
67294;Laerm;58160;51.434;5.978;2023-03-29T00:32:13;30.84;29.49;39.43;;
67294;Laerm;58160;51.434;5.978;2023-03-29T00:32:24;30.58;29.42;31.59;;
67294;Laerm;58160;51.434;5.978;2023-03-29T00:32:34;30.77;29.78;32.77;;
67294;Laerm;58160;51.434;5.978;2023-03-29T00:32:44;30.70;29.77;31.74;;
67294;Laerm;58160;51.434;5.978;2023-03-29T00:32:55;30.60;29.67;31.65;;
67294;Laerm;58160;51.434;5.978;2023-03-29T00:33:05;30.87;29.74;37.50;;
67294;Laerm;58160;51.434;5.978;2023-03-29T00:33:16;30.71;29.48;35.73;;
67294;Laerm;58160;51.434;5.978;2023-03-29T00:33:30;30.65;29.53;31.98;;
67294;Laerm;58160;51.434;5.978;2023-03-29T00:33:47;30.64;29.74;32.26;;
67294;Laerm;58160;51.434;5.978;2023-03-29T00:33:57;30.62;29.31;32.63;;
67294;Laerm;58160;51.434;5.978;2023-03-29T00:34:07;30.63;29.53;31.74;;
67294;Laerm;58160;51.434;5.978;2023-03-29T00:34:21;30.65;29.87;31.58;;
67294;Laerm;58160;51.434;5.978;2023-03-29T00:34:31;30.64;29.56;31.58;;
67294;Laerm;58160;51.434;5.978;2023-03-29T00:34:41;30.64;29.64;31.51;;
67294;Laerm;58160;51.434;5.978;2023-03-29T00:34:54;30.65;29.58;33.51;;
67294;Laerm;58160;51.434;5.978;2023-03-29T00:35:05;30.69;29.47;32.15;;
67294;Laerm;58160;51.434;5.978;2023-03-29T00:35:16;30.65;29.60;31.69;;
67294;Laerm;58160;51.434;5.978;2023-03-29T00:35:26;30.63;29.65;31.63;;
67294;Laerm;58160;51.434;5.978;2023-03-29T00:35:37;30.66;29.70;31.65;;
67294;Laerm;58160;51.434;5.978;2023-03-29T00:35:48;30.60;29.51;35.49;;
67294;Laerm;58160;51.434;5.978;2023-03-29T00:35:58;30.57;29.18;32.77;;
67294;Laerm;58160;51.434;5.978;2023-03-29T00:36:09;30.69;29.68;31.87;;
67294;Laerm;58160;51.434;5.978;2023-03-29T00:36:19;30.57;29.47;34.21;;
67294;Laerm;58160;51.434;5.978;2023-03-29T00:36:31;30.64;29.63;31.92;;
67294;Laerm;58160;51.434;5.978;2023-03-29T00:36:41;30.65;29.62;31.66;;
67294;Laerm;58160;51.434;5.978;2023-03-29T00:36:52;30.65;29.70;31.89;;
67294;Laerm;58160;51.434;5.978;2023-03-29T00:37:07;30.60;29.72;31.55;;
67294;Laerm;58160;51.434;5.978;2023-03-29T00:37:18;30.69;29.31;31.66;;
67294;Laerm;58160;51.434;5.978;2023-03-29T00:37:28;30.59;29.69;31.87;;
67294;Laerm;58160;51.434;5.978;2023-03-29T00:37:39;30.59;29.63;32.04;;
67294;Laerm;58160;51.434;5.978;2023-03-29T00:37:50;30.58;29.57;31.84;;
67294;Laerm;58160;51.434;5.978;2023-03-29T00:38:01;30.59;29.66;31.51;;
67294;Laerm;58160;51.434;5.978;2023-03-29T00:38:15;30.65;29.64;31.88;;
67294;Laerm;58160;51.434;5.978;2023-03-29T00:38:25;30.60;29.56;31.39;;
67294;Laerm;58160;51.434;5.978;2023-03-29T00:38:35;30.70;29.63;31.80;;
67294;Laerm;58160;51.434;5.978;2023-03-29T00:38:46;30.63;29.16;31.79;;
67294;Laerm;58160;51.434;5.978;2023-03-29T00:38:56;30.64;29.82;31.62;;
67294;Laerm;58160;51.434;5.978;2023-03-29T00:39:06;30.71;29.59;39.20;;
67294;Laerm;58160;51.434;5.978;2023-03-29T00:39:20;30.55;29.34;31.76;;
67294;Laerm;58160;51.434;5.978;2023-03-29T00:39:30;30.64;29.31;32.74;;
67294;Laerm;58160;51.434;5.978;2023-03-29T00:39:41;30.65;29.69;31.62;;
67294;Laerm;58160;51.434;5.978;2023-03-29T00:39:52;30.58;29.73;31.52;;
67294;Laerm;58160;51.434;5.978;2023-03-29T00:40:03;30.54;29.42;31.27;;
67294;Laerm;58160;51.434;5.978;2023-03-29T00:40:18;30.59;29.67;31.61;;
67294;Laerm;58160;51.434;5.978;2023-03-29T00:40:29;30.62;29.75;31.66;;
67294;Laerm;58160;51.434;5.978;2023-03-29T00:40:40;30.56;29.57;31.91;;
67294;Laerm;58160;51.434;5.978;2023-03-29T00:40:50;30.53;29.49;31.66;;
67294;Laerm;58160;51.434;5.978;2023-03-29T00:41:01;30.56;29.67;31.48;;
67294;Laerm;58160;51.434;5.978;2023-03-29T00:41:12;30.60;29.57;31.77;;
67294;Laerm;58160;51.434;5.978;2023-03-29T00:41:23;30.58;29.68;34.91;;
67294;Laerm;58160;51.434;5.978;2023-03-29T00:41:33;30.59;29.75;31.80;;
67294;Laerm;58160;51.434;5.978;2023-03-29T00:41:46;30.63;29.53;31.52;;
67294;Laerm;58160;51.434;5.978;2023-03-29T00:41:56;30.55;29.41;31.46;;
67294;Laerm;58160;51.434;5.978;2023-03-29T00:42:09;30.52;29.61;31.62;;
67294;Laerm;58160;51.434;5.978;2023-03-29T00:42:20;30.56;29.39;33.52;;
67294;Laerm;58160;51.434;5.978;2023-03-29T00:42:31;30.61;29.59;31.51;;
67294;Laerm;58160;51.434;5.978;2023-03-29T00:42:44;30.65;29.73;31.79;;
67294;Laerm;58160;51.434;5.978;2023-03-29T00:42:57;30.64;29.62;31.80;;
67294;Laerm;58160;51.434;5.978;2023-03-29T00:43:08;30.72;29.88;31.70;;
67294;Laerm;58160;51.434;5.978;2023-03-29T00:43:20;30.72;29.73;32.01;;
67294;Laerm;58160;51.434;5.978;2023-03-29T00:43:48;30.77;29.69;31.81;;
67294;Laerm;58160;51.434;5.978;2023-03-29T00:44:00;30.95;29.45;33.33;;
67294;Laerm;58160;51.434;5.978;2023-03-29T00:45:22;30.78;29.75;32.23;;
67294;Laerm;58160;51.434;5.978;2023-03-29T00:45:34;30.67;29.60;31.71;;
67294;Laerm;58160;51.434;5.978;2023-03-29T00:45:45;30.67;29.51;31.77;;
67294;Laerm;58160;51.434;5.978;2023-03-29T00:45:55;30.67;29.57;31.82;;
67294;Laerm;58160;51.434;5.978;2023-03-29T00:46:05;30.75;29.68;31.70;;
67294;Laerm;58160;51.434;5.978;2023-03-29T00:46:16;30.71;29.43;35.93;;
67294;Laerm;58160;51.434;5.978;2023-03-29T00:46:27;30.58;29.38;31.41;;
67294;Laerm;58160;51.434;5.978;2023-03-29T00:46:38;30.74;29.42;31.84;;
67294;Laerm;58160;51.434;5.978;2023-03-29T00:46:49;30.69;29.81;32.20;;
67294;Laerm;58160;51.434;5.978;2023-03-29T00:46:59;30.65;29.50;31.44;;
67294;Laerm;58160;51.434;5.978;2023-03-29T00:47:09;30.73;29.65;32.87;;
67294;Laerm;58160;51.434;5.978;2023-03-29T00:47:41;30.67;29.69;33.42;;
67294;Laerm;58160;51.434;5.978;2023-03-29T00:47:51;30.66;29.67;31.84;;
67294;Laerm;58160;51.434;5.978;2023-03-29T00:48:06;30.73;29.51;31.86;;
67294;Laerm;58160;51.434;5.978;2023-03-29T00:48:22;30.73;29.26;31.80;;
67294;Laerm;58160;51.434;5.978;2023-03-29T00:48:33;30.72;29.65;33.85;;
67294;Laerm;58160;51.434;5.978;2023-03-29T00:48:43;30.73;29.62;31.90;;
67294;Laerm;58160;51.434;5.978;2023-03-29T00:48:55;30.73;29.54;31.95;;
67294;Laerm;58160;51.434;5.978;2023-03-29T00:49:08;30.74;29.51;32.64;;
67294;Laerm;58160;51.434;5.978;2023-03-29T00:49:21;30.67;29.55;31.65;;
67294;Laerm;58160;51.434;5.978;2023-03-29T00:49:32;30.73;29.37;34.34;;
67294;Laerm;58160;51.434;5.978;2023-03-29T00:49:44;30.66;29.71;33.42;;
67294;Laerm;58160;51.434;5.978;2023-03-29T00:50:00;30.63;29.73;31.74;;
67294;Laerm;58160;51.434;5.978;2023-03-29T00:50:16;30.69;29.59;38.57;;
67294;Laerm;58160;51.434;5.978;2023-03-29T00:50:51;30.61;29.58;31.78;;
67294;Laerm;58160;51.434;5.978;2023-03-29T00:51:04;30.59;29.56;31.71;;
67294;Laerm;58160;51.434;5.978;2023-03-29T00:51:16;30.56;29.67;31.48;;
67294;Laerm;58160;51.434;5.978;2023-03-29T00:51:29;30.63;29.66;32.70;;
67294;Laerm;58160;51.434;5.978;2023-03-29T00:51:41;30.61;29.74;31.99;;
67294;Laerm;58160;51.434;5.978;2023-03-29T00:51:51;30.64;29.66;31.59;;
67294;Laerm;58160;51.434;5.978;2023-03-29T00:52:01;30.73;29.58;37.69;;
67294;Laerm;58160;51.434;5.978;2023-03-29T00:52:13;30.62;29.71;31.48;;
67294;Laerm;58160;51.434;5.978;2023-03-29T00:52:24;30.59;29.54;31.61;;
67294;Laerm;58160;51.434;5.978;2023-03-29T00:52:39;30.59;29.67;32.71;;
67294;Laerm;58160;51.434;5.978;2023-03-29T00:53:02;30.62;29.27;31.74;;
67294;Laerm;58160;51.434;5.978;2023-03-29T00:53:17;30.63;29.37;34.31;;
67294;Laerm;58160;51.434;5.978;2023-03-29T00:53:29;30.60;29.57;31.62;;
67294;Laerm;58160;51.434;5.978;2023-03-29T00:53:46;30.64;29.55;33.65;;
67294;Laerm;58160;51.434;5.978;2023-03-29T00:53:58;30.81;29.57;41.51;;
67294;Laerm;58160;51.434;5.978;2023-03-29T00:54:11;30.64;29.62;31.71;;
67294;Laerm;58160;51.434;5.978;2023-03-29T00:54:23;30.62;29.40;31.68;;
67294;Laerm;58160;51.434;5.978;2023-03-29T00:54:35;30.57;29.52;31.60;;
67294;Laerm;58160;51.434;5.978;2023-03-29T00:54:47;30.57;29.37;31.62;;
67294;Laerm;58160;51.434;5.978;2023-03-29T00:55:01;30.53;29.38;31.43;;
67294;Laerm;58160;51.434;5.978;2023-03-29T00:55:15;30.61;29.67;31.50;;
67294;Laerm;58160;51.434;5.978;2023-03-29T00:55:29;30.62;29.30;32.06;;
67294;Laerm;58160;51.434;5.978;2023-03-29T00:55:46;30.60;29.52;31.86;;
67294;Laerm;58160;51.434;5.978;2023-03-29T00:55:59;30.56;29.61;31.55;;
67294;Laerm;58160;51.434;5.978;2023-03-29T00:56:11;30.53;29.50;31.45;;
67294;Laerm;58160;51.434;5.978;2023-03-29T00:56:30;30.59;29.60;31.93;;
67294;Laerm;58160;51.434;5.978;2023-03-29T00:56:44;30.57;29.33;32.11;;
67294;Laerm;58160;51.434;5.978;2023-03-29T00:56:56;30.64;29.57;31.80;;
67294;Laerm;58160;51.434;5.978;2023-03-29T00:57:07;30.64;29.59;31.73;;
67294;Laerm;58160;51.434;5.978;2023-03-29T00:57:18;30.59;29.50;31.60;;
67294;Laerm;58160;51.434;5.978;2023-03-29T00:57:29;30.52;29.39;31.57;;
67294;Laerm;58160;51.434;5.978;2023-03-29T00:57:40;30.61;29.72;31.58;;
67294;Laerm;58160;51.434;5.978;2023-03-29T00:57:52;30.59;29.52;31.59;;
67294;Laerm;58160;51.434;5.978;2023-03-29T00:58:05;30.68;29.41;32.04;;
67294;Laerm;58160;51.434;5.978;2023-03-29T00:58:19;30.63;29.30;31.93;;
67294;Laerm;58160;51.434;5.978;2023-03-29T00:58:34;30.66;29.67;31.47;;
67294;Laerm;58160;51.434;5.978;2023-03-29T00:58:56;30.76;29.58;31.88;;
67294;Laerm;58160;51.434;5.978;2023-03-29T00:59:11;30.68;29.62;31.86;;
67294;Laerm;58160;51.434;5.978;2023-03-29T00:59:23;30.67;29.48;31.77;;
67294;Laerm;58160;51.434;5.978;2023-03-29T00:59:37;30.75;29.66;32.34;;
67294;Laerm;58160;51.434;5.978;2023-03-29T00:59:48;31.08;29.80;34.82;;
67294;Laerm;58160;51.434;5.978;2023-03-29T00:59:59;31.11;29.83;32.53;;
67294;Laerm;58160;51.434;5.978;2023-03-29T01:00:10;31.05;30.04;31.99;;
67294;Laerm;58160;51.434;5.978;2023-03-29T01:00:24;30.99;30.03;32.26;;
67294;Laerm;58160;51.434;5.978;2023-03-29T01:00:37;31.09;29.88;33.32;;
67294;Laerm;58160;51.434;5.978;2023-03-29T01:00:51;31.20;30.01;33.40;;
67294;Laerm;58160;51.434;5.978;2023-03-29T01:01:09;31.48;29.89;33.43;;
67294;Laerm;58160;51.434;5.978;2023-03-29T01:01:26;30.94;30.05;31.95;;
67294;Laerm;58160;51.434;5.978;2023-03-29T01:01:47;30.74;29.71;31.88;;
67294;Laerm;58160;51.434;5.978;2023-03-29T01:02:03;30.93;29.74;38.57;;
67294;Laerm;58160;51.434;5.978;2023-03-29T01:02:16;30.95;29.78;32.07;;
67294;Laerm;58160;51.434;5.978;2023-03-29T01:02:31;31.35;29.97;32.97;;
67294;Laerm;58160;51.434;5.978;2023-03-29T01:02:43;31.56;30.48;33.45;;
67294;Laerm;58160;51.434;5.978;2023-03-29T01:03:00;31.44;30.13;33.15;;
67294;Laerm;58160;51.434;5.978;2023-03-29T01:03:13;31.36;30.12;33.78;;
67294;Laerm;58160;51.434;5.978;2023-03-29T01:03:38;31.97;29.67;35.71;;
67294;Laerm;58160;51.434;5.978;2023-03-29T01:03:56;31.96;29.88;37.46;;
67294;Laerm;58160;51.434;5.978;2023-03-29T01:04:58;30.80;29.59;32.06;;
67294;Laerm;58160;51.434;5.978;2023-03-29T01:05:12;30.92;29.99;32.44;;
67294;Laerm;58160;51.434;5.978;2023-03-29T01:05:34;30.93;29.81;32.29;;
67294;Laerm;58160;51.434;5.978;2023-03-29T01:05:47;31.50;29.88;35.26;;
67294;Laerm;58160;51.434;5.978;2023-03-29T01:06:01;31.49;30.02;33.58;;
67294;Laerm;58160;51.434;5.978;2023-03-29T01:06:13;30.68;29.64;31.84;;
67294;Laerm;58160;51.434;5.978;2023-03-29T01:06:25;30.63;29.40;31.87;;
67294;Laerm;58160;51.434;5.978;2023-03-29T01:06:38;30.60;29.58;31.52;;
67294;Laerm;58160;51.434;5.978;2023-03-29T01:06:54;30.56;29.59;31.83;;
67294;Laerm;58160;51.434;5.978;2023-03-29T01:07:08;30.85;29.61;44.88;;
67294;Laerm;58160;51.434;5.978;2023-03-29T01:07:29;30.53;29.57;31.63;;
67294;Laerm;58160;51.434;5.978;2023-03-29T01:07:54;30.76;29.48;38.12;;
67294;Laerm;58160;51.434;5.978;2023-03-29T01:08:41;31.64;30.10;38.95;;
67294;Laerm;58160;51.434;5.978;2023-03-29T01:08:52;31.29;29.43;44.11;;
67294;Laerm;58160;51.434;5.978;2023-03-29T01:08:54;31.62;30.14;35.76;;
67294;Laerm;58160;51.434;5.978;2023-03-29T01:09:07;31.51;30.14;35.67;;
67294;Laerm;58160;51.434;5.978;2023-03-29T01:09:19;31.26;29.72;35.05;;
67294;Laerm;58160;51.434;5.978;2023-03-29T01:09:32;31.15;29.75;35.19;;